Antioch, California
Current Conditions -  °F | °C
As of 9:53 PM on Wednesday 26 Nov 2014 (Local Time) from KCCR Reporting Station
Haze Haze  
Wind Chill: 51°   Ceiling: Unl
Heat Index: 51°   Visibility: 5mi
Dew Point: 46°   Wind: 0mph
Humidity: 83%   Direction: NA
Pressure: 30.23"   Gusts: NA
Location:  38.02°N, 121.81°W
Report Text: KCCR 270553Z 00000KT 5SM HZ CLR 11/08 A3023 RMK AO2 SLP223 T01060078 10189 20100 51004
Loading
Personal Weather Stations






























Interactive Weather Map New forecast layout! Learn more

10-Day Weather Forecast

Advertisements
Track Severe Weather on mobile